createdAt,value
2023-01-30T00:01:43.118Z,88.30
2023-01-30T00:04:12.327Z,88.60
2023-01-30T00:06:40.616Z,88.70
2023-01-30T00:09:07.968Z,88.70
2023-01-30T00:11:34.632Z,88.80
2023-01-30T00:14:01.604Z,88.80
2023-01-30T00:16:28.344Z,88.90
2023-01-30T00:18:55.069Z,88.90
2023-01-30T00:21:21.624Z,88.70
2023-01-30T00:23:48.317Z,88.60
2023-01-30T00:26:14.939Z,88.30
2023-01-30T00:28:41.700Z,88.30
2023-01-30T00:31:08.943Z,88.50
2023-01-30T00:33:37.814Z,89.30
2023-01-30T00:36:05.172Z,89.10
2023-01-30T00:38:31.842Z,89.40
2023-01-30T00:40:58.454Z,89.90
2023-01-30T00:43:43.878Z,89.90
2023-01-30T00:46:53.543Z,90.10
2023-01-30T00:49:20.483Z,90.30
2023-01-30T00:51:47.190Z,90.50
2023-01-30T00:54:13.925Z,90.80
2023-01-30T00:56:40.590Z,90.70
2023-01-30T00:59:07.183Z,90.90
2023-01-30T01:01:33.813Z,91.20
2023-01-30T01:04:00.735Z,91.30
2023-01-30T01:06:27.278Z,91.00
2023-01-30T01:08:53.940Z,91.10
2023-01-30T01:11:26.796Z,91.20
2023-01-30T01:13:58.705Z,92.00
2023-01-30T01:16:26.735Z,92.00
2023-01-30T01:18:54.103Z,91.30
2023-01-30T01:21:21.880Z,91.30
2023-01-30T01:23:53.337Z,91.20
2023-01-30T01:26:21.050Z,91.10
2023-01-30T01:28:47.737Z,91.10
2023-01-30T01:31:16.551Z,91.30
2023-01-30T01:33:43.397Z,91.40
2023-01-30T01:36:10.174Z,91.40
2023-01-30T01:38:37.617Z,91.50
2023-01-30T01:41:06.440Z,91.50
2023-01-30T01:43:37.152Z,91.80
2023-01-30T01:46:22.341Z,91.70
2023-01-30T01:48:53.423Z,91.80
2023-01-30T01:51:34.947Z,91.90
2023-01-30T01:54:16.944Z,91.70
2023-01-30T01:56:47.431Z,91.70
2023-01-30T01:59:26.180Z,91.70
2023-01-30T02:01:58.310Z,91.70
2023-01-30T02:04:46.002Z,91.80
2023-01-30T02:07:13.169Z,91.70
2023-01-30T02:09:39.871Z,91.50
2023-01-30T02:12:07.023Z,91.70
2023-01-30T02:14:34.872Z,91.60
2023-01-30T02:17:01.527Z,91.60
2023-01-30T02:19:37.170Z,91.50
2023-01-30T02:22:18.248Z,91.50
2023-01-30T02:25:07.452Z,91.40
2023-01-30T02:28:10.735Z,91.70
2023-01-30T02:30:49.420Z,92.40
2023-01-30T02:33:34.274Z,92.70
2023-01-30T02:36:29.135Z,92.80
2023-01-30T02:39:13.859Z,93.30
2023-01-30T02:42:04.464Z,93.90
2023-01-30T02:44:34.928Z,94.30
2023-01-30T02:47:12.246Z,94.80
2023-01-30T02:49:44.591Z,95.00
2023-01-30T02:52:13.508Z,95.20
2023-01-30T02:54:40.119Z,95.40
2023-01-30T02:57:24.272Z,95.70
2023-01-30T03:00:04.600Z,95.70
2023-01-30T03:02:40.151Z,96.00
2023-01-30T03:05:31.012Z,96.30
2023-01-30T03:08:11.103Z,96.50
2023-01-30T03:11:06.214Z,96.60
2023-01-30T03:13:42.854Z,96.90
2023-01-30T03:16:15.688Z,97.00
2023-01-30T03:18:42.567Z,97.10
2023-01-30T03:21:12.115Z,97.20
2023-01-30T03:23:38.936Z,97.30
2023-01-30T03:26:08.255Z,97.40
2023-01-30T03:28:35.475Z,97.60
2023-01-30T03:31:02.208Z,97.80
2023-01-30T03:33:29.098Z,97.80
2023-01-30T03:35:55.864Z,98.10
2023-01-30T03:38:22.514Z,98.20
2023-01-30T03:40:49.305Z,98.40
2023-01-30T03:43:15.923Z,98.60
2023-01-30T03:45:42.481Z,98.80
2023-01-30T03:48:09.200Z,99.00
2023-01-30T03:50:35.828Z,99.20
2023-01-30T03:53:02.381Z,99.30
2023-01-30T03:55:29.035Z,99.80
2023-01-30T03:57:57.190Z,99.90
2023-01-30T04:00:24.019Z,99.90
2023-01-30T04:02:50.801Z,99.90
2023-01-30T04:05:18.358Z,99.90
2023-01-30T04:07:45.275Z,99.90
2023-01-30T04:10:15.234Z,99.90
2023-01-30T04:12:45.312Z,99.80
2023-01-30T04:15:12.558Z,99.60
2023-01-30T04:17:39.330Z,99.30
2023-01-30T04:20:06.535Z,98.90
2023-01-30T04:22:33.146Z,98.80
2023-01-30T04:24:59.810Z,98.50
2023-01-30T04:27:26.415Z,98.30
2023-01-30T04:29:53.027Z,98.20
2023-01-30T04:32:19.740Z,98.20
2023-01-30T04:34:46.373Z,98.20
2023-01-30T04:37:13.118Z,98.30
2023-01-30T04:39:39.874Z,98.30
2023-01-30T04:42:06.506Z,98.50
2023-01-30T04:44:33.219Z,98.70
2023-01-30T04:46:59.978Z,98.70
2023-01-30T04:49:26.804Z,98.80
2023-01-30T04:51:53.496Z,98.90
2023-01-30T04:54:20.311Z,99.10
2023-01-30T04:56:46.918Z,99.10
2023-01-30T04:59:13.733Z,99.20
2023-01-30T05:01:40.455Z,99.90
2023-01-30T05:04:07.672Z,99.50
2023-01-30T05:06:36.437Z,99.60
2023-01-30T05:09:04.328Z,99.60
2023-01-30T05:11:32.140Z,99.80
2023-01-30T05:13:59.375Z,99.90
2023-01-30T05:16:26.811Z,99.90
2023-01-30T05:18:53.470Z,99.90
2023-01-30T05:21:23.574Z,99.90
2023-01-30T05:23:52.425Z,99.90
2023-01-30T05:26:19.465Z,99.90
2023-01-30T05:28:51.931Z,99.90
2023-01-30T05:31:18.664Z,99.90
2023-01-30T05:33:47.749Z,99.90
2023-01-30T05:36:16.735Z,99.90
2023-01-30T05:38:44.465Z,99.90
2023-01-30T05:41:12.431Z,99.90
2023-01-30T05:43:39.290Z,99.90
2023-01-30T05:46:07.237Z,99.90
2023-01-30T05:48:34.386Z,99.90
2023-01-30T05:51:01.447Z,99.90
2023-01-30T05:53:30.895Z,99.90
2023-01-30T05:56:02.547Z,99.90
2023-01-30T05:58:29.632Z,99.90
2023-01-30T06:01:04.648Z,99.90
2023-01-30T06:03:31.707Z,99.90
2023-01-30T06:05:58.868Z,99.90
2023-01-30T06:08:25.648Z,99.90
2023-01-30T06:10:52.337Z,99.90
2023-01-30T06:13:18.995Z,99.90
2023-01-30T06:15:45.835Z,99.90
2023-01-30T06:18:12.509Z,99.90
2023-01-30T06:20:39.233Z,99.90
2023-01-30T06:23:05.881Z,99.90
2023-01-30T06:25:32.599Z,99.90
2023-01-30T06:27:59.241Z,99.90
2023-01-30T06:30:25.912Z,99.90
2023-01-30T06:32:52.652Z,99.90
2023-01-30T06:35:19.815Z,99.90
2023-01-30T06:37:46.800Z,99.90
2023-01-30T06:40:13.935Z,99.90
2023-01-30T06:42:45.359Z,99.90
2023-01-30T06:45:17.234Z,99.90
2023-01-30T06:47:51.904Z,99.90
2023-01-30T06:50:21.460Z,99.90
2023-01-30T06:52:50.253Z,99.90
2023-01-30T06:55:19.482Z,99.90
2023-01-30T06:57:46.854Z,99.90
2023-01-30T07:00:16.574Z,99.90
2023-01-30T07:02:43.432Z,99.90
2023-01-30T07:05:10.683Z,99.90
2023-01-30T07:07:38.394Z,99.90
2023-01-30T07:10:08.767Z,99.90
2023-01-30T07:12:36.231Z,99.90
2023-01-30T07:15:03.947Z,99.90
2023-01-30T07:17:30.621Z,99.90
2023-01-30T07:19:57.304Z,99.90
2023-01-30T07:22:23.993Z,99.90
2023-01-30T07:24:50.697Z,99.90
2023-01-30T07:27:17.395Z,99.90
2023-01-30T07:29:44.059Z,99.90
2023-01-30T07:32:15.795Z,99.90
2023-01-30T07:34:42.510Z,99.90
2023-01-30T07:37:09.235Z,99.90
2023-01-30T07:39:36.125Z,99.90
2023-01-30T07:42:03.426Z,99.90
2023-01-30T07:44:30.096Z,99.90
2023-01-30T07:46:56.840Z,99.90
2023-01-30T07:49:23.667Z,99.90
2023-01-30T07:51:50.335Z,99.90
2023-01-30T07:54:17.024Z,99.90
2023-01-30T07:56:43.880Z,99.90
2023-01-30T07:59:13.711Z,99.90
2023-01-30T08:01:40.556Z,99.90
2023-01-30T08:04:07.299Z,99.90
2023-01-30T08:06:38.856Z,99.90
2023-01-30T08:09:07.469Z,99.90
2023-01-30T08:11:34.838Z,99.90
2023-01-30T08:14:01.652Z,99.90
2023-01-30T08:16:28.449Z,99.90
2023-01-30T08:18:55.099Z,99.90
2023-01-30T08:21:21.823Z,99.90
2023-01-30T08:23:48.556Z,99.90
2023-01-30T08:26:15.311Z,99.90
2023-01-30T08:28:42.347Z,99.90
2023-01-30T08:31:10.942Z,99.90
2023-01-30T08:33:37.705Z,99.90
2023-01-30T08:36:04.832Z,99.90
2023-01-30T08:38:31.555Z,99.90
2023-01-30T08:40:59.384Z,99.90
2023-01-30T08:43:26.072Z,99.90
2023-01-30T08:45:56.874Z,99.90
2023-01-30T08:48:23.938Z,99.90
2023-01-30T08:50:56.862Z,99.90
2023-01-30T08:53:23.817Z,99.90
2023-01-30T08:55:54.050Z,99.90
2023-01-30T08:58:21.920Z,99.90
2023-01-30T09:00:50.266Z,99.90
2023-01-30T09:03:18.524Z,99.90
2023-01-30T09:05:45.835Z,99.90
2023-01-30T09:08:13.065Z,99.90
2023-01-30T09:10:39.827Z,99.90
2023-01-30T09:13:09.804Z,99.90
2023-01-30T09:15:40.268Z,99.90
2023-01-30T09:18:07.002Z,99.90
2023-01-30T09:20:33.742Z,99.90
2023-01-30T09:23:01.839Z,99.90
2023-01-30T09:25:28.599Z,99.90
2023-01-30T09:27:55.488Z,99.90
2023-01-30T09:30:22.413Z,99.90
2023-01-30T09:32:49.228Z,99.90
2023-01-30T09:35:15.959Z,98.40
2023-01-30T09:37:53.862Z,96.40
2023-01-30T09:40:27.557Z,94.30
2023-01-30T09:43:13.399Z,92.90
2023-01-30T09:45:50.406Z,91.60
2023-01-30T09:48:42.753Z,91.20
2023-01-30T09:51:39.404Z,92.60
2023-01-30T09:54:24.478Z,92.80
2023-01-30T09:57:21.196Z,93.10
2023-01-30T10:00:08.465Z,93.50
2023-01-30T10:02:59.385Z,92.40
2023-01-30T10:05:36.625Z,91.60
2023-01-30T10:08:20.155Z,89.90
2023-01-30T10:11:09.596Z,91.00
2023-01-30T10:14:11.439Z,91.50
2023-01-30T10:17:12.201Z,88.90
2023-01-30T10:20:00.153Z,87.90
2023-01-30T10:22:50.242Z,88.40
2023-01-30T10:25:42.148Z,87.30
2023-01-30T10:28:33.074Z,84.80
2023-01-30T10:31:10.169Z,86.10
2023-01-30T10:33:45.909Z,85.50
2023-01-30T10:36:21.314Z,85.00
2023-01-30T10:38:53.846Z,85.10
2023-01-30T10:41:24.572Z,85.80
2023-01-30T10:44:04.317Z,83.30
2023-01-30T10:47:13.518Z,83.00
2023-01-30T10:49:56.459Z,80.00
2023-01-30T10:52:51.126Z,80.60
2023-01-30T10:55:42.145Z,81.60
2023-01-30T10:58:28.551Z,81.60
2023-01-30T11:01:01.404Z,82.40
2023-01-30T11:03:48.086Z,82.50
2023-01-30T11:06:23.792Z,82.20
2023-01-30T11:08:51.598Z,83.70
2023-01-30T11:11:39.436Z,85.60
2023-01-30T11:14:08.285Z,87.60
2023-01-30T11:16:43.628Z,89.10
2023-01-30T11:19:20.739Z,90.20
2023-01-30T11:21:59.936Z,91.80
2023-01-30T11:24:44.631Z,92.40
2023-01-30T11:27:11.358Z,92.30
2023-01-30T11:29:39.800Z,92.60
2023-01-30T11:32:13.103Z,93.00
2023-01-30T11:34:43.091Z,94.50
2023-01-30T11:37:37.045Z,92.50
2023-01-30T11:40:25.462Z,91.40
2023-01-30T11:43:10.929Z,89.30
2023-01-30T11:45:50.837Z,88.30
2023-01-30T11:48:34.121Z,83.50
2023-01-30T11:51:23.247Z,80.30
2023-01-30T11:54:16.385Z,79.00
2023-01-30T11:56:55.483Z,79.90
2023-01-30T11:59:39.825Z,77.20
2023-01-30T12:02:16.021Z,77.40
2023-01-30T12:04:47.660Z,79.10
2023-01-30T12:07:26.212Z,81.00
2023-01-30T12:09:54.237Z,83.10
2023-01-30T12:12:48.562Z,84.10
2023-01-30T12:15:38.958Z,85.70
2023-01-30T12:18:10.169Z,87.50
2023-01-30T12:20:49.936Z,88.60
2023-01-30T12:24:01.814Z,91.00
2023-01-30T12:26:47.194Z,93.10
2023-01-30T12:29:37.847Z,94.70
2023-01-30T12:32:14.688Z,94.30
2023-01-30T12:34:45.982Z,92.40
2023-01-30T12:37:37.589Z,92.20
2023-01-30T12:40:04.108Z,92.80
2023-01-30T12:42:36.971Z,93.50
2023-01-30T12:45:19.490Z,93.50
2023-01-30T12:48:07.965Z,93.10
2023-01-30T12:50:49.867Z,94.00
2023-01-30T12:53:53.294Z,94.30
2023-01-30T12:56:48.375Z,94.60
2023-01-30T12:59:28.483Z,95.10
2023-01-30T13:02:02.057Z,95.40
2023-01-30T13:05:22.608Z,95.80
2023-01-30T13:08:27.238Z,92.30
2023-01-30T13:11:42.040Z,92.80
2023-01-30T13:14:11.915Z,87.30
2023-01-30T13:17:17.523Z,81.00
2023-01-30T13:20:13.616Z,81.80
2023-01-30T13:23:21.928Z,77.40
2023-01-30T13:26:08.519Z,77.80
2023-01-30T13:32:04.733Z,74.30
2023-01-30T13:35:06.846Z,73.80
2023-01-30T13:37:50.261Z,74.30
2023-01-30T13:43:59.076Z,70.40
2023-01-30T13:46:39.412Z,69.30
2023-01-30T13:49:06.304Z,71.90
2023-01-30T13:52:15.647Z,70.40
2023-01-30T13:55:12.011Z,69.50
2023-01-30T13:58:14.572Z,68.40
2023-01-30T14:00:55.585Z,67.30
2023-01-30T14:03:28.984Z,67.80
2023-01-30T14:06:01.667Z,67.10
2023-01-30T14:08:46.986Z,69.10
2023-01-30T14:14:25.684Z,65.90
2023-01-30T14:16:56.223Z,65.50
2023-01-30T14:19:49.130Z,65.40
2023-01-30T14:22:30.045Z,64.70
2023-01-30T14:25:25.500Z,66.10
2023-01-30T14:28:06.175Z,66.40
2023-01-30T14:30:45.291Z,67.00
2023-01-30T14:34:05.408Z,68.40
2023-01-30T14:36:35.953Z,69.40
2023-01-30T14:39:59.103Z,70.70
2023-01-30T14:42:28.592Z,71.80
2023-01-30T14:45:00.191Z,73.10
2023-01-30T14:47:34.146Z,74.10
2023-01-30T14:50:23.770Z,73.80
2023-01-30T14:52:57.593Z,73.00
2023-01-30T14:55:29.774Z,73.50
2023-01-30T14:58:01.555Z,73.70
2023-01-30T15:00:34.502Z,73.80
2023-01-30T15:03:23.739Z,76.70
2023-01-30T15:05:50.454Z,80.00
2023-01-30T15:08:22.384Z,82.10
2023-01-30T15:11:23.272Z,81.50
2023-01-30T15:14:16.370Z,81.80
2023-01-30T15:17:22.309Z,82.70
2023-01-30T15:20:07.559Z,82.70
2023-01-30T15:22:54.779Z,83.10
2023-01-30T15:25:32.754Z,83.30
2023-01-30T15:28:10.759Z,82.80
2023-01-30T15:31:07.572Z,82.30
2023-01-30T15:33:55.389Z,81.80
2023-01-30T15:39:29.803Z,82.30
2023-01-30T15:42:11.582Z,81.90
2023-01-30T15:45:02.398Z,81.20
2023-01-30T15:47:55.616Z,81.70
2023-01-30T15:50:22.904Z,81.80
2023-01-30T15:52:54.050Z,82.90
2023-01-30T15:55:27.128Z,83.70
2023-01-30T15:58:01.732Z,84.50
2023-01-30T16:00:39.276Z,84.30
2023-01-30T16:03:12.010Z,83.90
2023-01-30T16:05:46.157Z,84.80
2023-01-30T16:08:23.136Z,83.70
2023-01-30T16:10:51.683Z,83.60
2023-01-30T16:13:23.829Z,83.70
2023-01-30T16:16:12.583Z,84.10
2023-01-30T16:18:46.381Z,83.30
2023-01-30T16:21:20.256Z,83.00
2023-01-30T16:24:06.481Z,83.20
2023-01-30T16:26:35.231Z,83.10
2023-01-30T16:29:07.866Z,83.40
2023-01-30T16:31:38.664Z,82.90
2023-01-30T16:34:05.973Z,82.70
2023-01-30T16:36:41.068Z,82.80
2023-01-30T16:39:29.984Z,83.10
2023-01-30T16:42:01.443Z,81.60
2023-01-30T16:44:30.155Z,81.60
2023-01-30T16:46:59.011Z,81.30
2023-01-30T16:49:35.440Z,81.00
2023-01-30T16:52:19.610Z,80.70
2023-01-30T16:54:52.954Z,81.60
2023-01-30T16:57:36.662Z,81.70
2023-01-30T17:00:20.122Z,81.80
2023-01-30T17:02:55.533Z,82.20
2023-01-30T17:05:28.705Z,83.50
2023-01-30T17:07:57.243Z,83.80
2023-01-30T17:10:39.720Z,83.80
2023-01-30T17:13:35.397Z,84.20
2023-01-30T17:16:24.050Z,83.50
2023-01-30T17:18:56.148Z,82.80
2023-01-30T17:21:25.568Z,82.60
2023-01-30T17:24:01.657Z,82.30
2023-01-30T17:26:29.162Z,80.90
2023-01-30T17:28:56.229Z,80.70
2023-01-30T17:31:23.504Z,79.80
2023-01-30T17:33:50.263Z,79.70
2023-01-30T17:36:25.105Z,79.20
2023-01-30T17:38:52.420Z,79.00
2023-01-30T17:41:25.589Z,78.30
2023-01-30T17:43:52.460Z,78.30
2023-01-30T17:46:23.940Z,78.70
2023-01-30T17:48:53.825Z,78.80
2023-01-30T17:51:20.570Z,79.80
2023-01-30T17:53:47.234Z,79.00
2023-01-30T17:56:51.344Z,78.50
2023-01-30T17:59:20.033Z,78.40
2023-01-30T18:01:49.151Z,78.40
2023-01-30T18:04:22.079Z,78.30
2023-01-30T18:07:00.479Z,79.30
2023-01-30T18:09:27.237Z,79.40
2023-01-30T18:11:53.967Z,80.00
2023-01-30T18:14:22.763Z,79.60
2023-01-30T18:16:50.033Z,78.60
2023-01-30T18:19:18.556Z,77.80
2023-01-30T18:21:45.475Z,77.70
2023-01-30T18:24:13.407Z,78.00
2023-01-30T18:26:40.551Z,77.80
2023-01-30T18:29:09.548Z,77.70
2023-01-30T18:31:37.369Z,77.50
2023-01-30T18:34:04.176Z,77.60
2023-01-30T18:36:34.027Z,78.10
2023-01-30T18:39:00.867Z,78.10
2023-01-30T18:41:28.778Z,77.90
2023-01-30T18:43:58.351Z,77.20
2023-01-30T18:46:26.186Z,76.90
2023-01-30T18:48:53.176Z,76.40
2023-01-30T18:51:25.406Z,76.40
2023-01-30T18:53:53.869Z,77.10
2023-01-30T18:56:33.045Z,76.30
2023-01-30T18:59:03.270Z,76.00
2023-01-30T19:01:34.092Z,75.90
2023-01-30T19:04:02.638Z,76.00
2023-01-30T19:06:29.867Z,76.30
2023-01-30T19:08:57.760Z,76.00
2023-01-30T19:11:43.517Z,76.00
2023-01-30T19:14:10.870Z,75.30
2023-01-30T19:16:38.720Z,76.00
2023-01-30T19:19:12.321Z,75.60
2023-01-30T19:21:39.300Z,75.90
2023-01-30T19:24:07.513Z,76.90
2023-01-30T19:26:34.984Z,77.90
2023-01-30T19:29:01.869Z,78.30
2023-01-30T19:31:28.631Z,78.10
2023-01-30T19:34:00.877Z,78.10
2023-01-30T19:36:31.730Z,76.90
2023-01-30T19:38:59.925Z,76.50
2023-01-30T19:41:29.517Z,76.90
2023-01-30T19:43:58.155Z,76.60
2023-01-30T19:46:25.817Z,77.10
2023-01-30T19:48:52.802Z,77.40
2023-01-30T19:51:28.043Z,77.80
2023-01-30T19:54:00.273Z,78.10
2023-01-30T19:56:28.441Z,78.70
2023-01-30T19:58:58.473Z,79.00
2023-01-30T20:01:29.591Z,79.30
2023-01-30T20:03:57.325Z,79.10
2023-01-30T20:06:26.555Z,79.30
2023-01-30T20:09:01.587Z,79.40
2023-01-30T20:11:29.699Z,79.60
2023-01-30T20:13:56.613Z,79.50
2023-01-30T20:16:27.198Z,79.80
2023-01-30T20:19:00.014Z,79.90
2023-01-30T20:21:28.023Z,80.20
2023-01-30T20:23:55.780Z,80.50
2023-01-30T20:26:24.922Z,80.90
2023-01-30T20:28:54.519Z,80.90
2023-01-30T20:31:26.819Z,80.90
2023-01-30T20:33:56.754Z,80.70
2023-01-30T20:36:26.516Z,81.10
2023-01-30T20:38:55.187Z,81.60
2023-01-30T20:41:24.696Z,81.70
2023-01-30T20:43:54.464Z,81.70
2023-01-30T20:46:27.340Z,82.20
2023-01-30T20:48:55.793Z,82.40
2023-01-30T20:51:28.419Z,83.40
2023-01-30T20:54:00.155Z,83.70
2023-01-30T20:56:31.615Z,84.20
2023-01-30T20:58:58.425Z,85.10
2023-01-30T21:01:25.248Z,86.40
2023-01-30T21:03:53.604Z,88.20
2023-01-30T21:06:42.642Z,88.40
2023-01-30T21:09:20.740Z,88.30
2023-01-30T21:11:48.742Z,88.10
2023-01-30T21:14:16.630Z,87.90
2023-01-30T21:16:43.663Z,87.90
2023-01-30T21:19:14.322Z,87.70
2023-01-30T21:21:51.123Z,87.80
2023-01-30T21:24:20.623Z,87.10
2023-01-30T21:26:48.057Z,87.00
2023-01-30T21:29:17.553Z,87.00
2023-01-30T21:31:45.268Z,87.30
2023-01-30T21:34:12.974Z,87.10
2023-01-30T21:36:40.360Z,86.10
2023-01-30T21:39:25.518Z,86.10
2023-01-30T21:41:52.204Z,86.20
2023-01-30T21:44:23.566Z,85.50
2023-01-30T21:46:50.181Z,85.60
2023-01-30T21:49:18.286Z,84.40
2023-01-30T21:51:49.279Z,83.70
2023-01-30T21:54:17.783Z,84.70
2023-01-30T21:56:44.965Z,85.50
2023-01-30T21:59:12.209Z,85.70
2023-01-30T22:01:40.090Z,86.40
2023-01-30T22:04:10.276Z,87.60
2023-01-30T22:06:37.977Z,89.00
2023-01-30T22:09:05.574Z,89.90
2023-01-30T22:11:32.799Z,90.20
2023-01-30T22:13:59.501Z,90.50
2023-01-30T22:16:28.332Z,91.10
2023-01-30T22:18:57.652Z,92.00
2023-01-30T22:21:26.864Z,92.30
2023-01-30T22:23:54.992Z,92.40
2023-01-30T22:26:23.456Z,92.00
2023-01-30T22:28:58.457Z,91.70
2023-01-30T22:31:27.735Z,91.40
2023-01-30T22:33:56.367Z,90.80
2023-01-30T22:36:24.820Z,90.30
2023-01-30T22:38:51.564Z,90.00
2023-01-30T22:41:23.468Z,90.00
2023-01-30T22:43:58.723Z,88.70
2023-01-30T22:46:31.393Z,87.60
2023-01-30T22:49:03.461Z,86.10
2023-01-30T22:51:39.564Z,84.40
2023-01-30T22:54:09.735Z,82.90
2023-01-30T22:56:40.994Z,82.80
2023-01-30T22:59:08.540Z,82.50
2023-01-30T23:01:46.192Z,81.70
2023-01-30T23:04:22.434Z,81.90
2023-01-30T23:06:51.298Z,81.50
2023-01-30T23:09:21.731Z,81.30
2023-01-30T23:12:12.930Z,81.80
2023-01-30T23:14:39.708Z,81.00
2023-01-30T23:17:26.045Z,80.40
2023-01-30T23:19:53.887Z,80.30
2023-01-30T23:22:20.764Z,80.10
2023-01-30T23:24:48.627Z,79.80
2023-01-30T23:27:15.346Z,80.50
2023-01-30T23:29:42.052Z,81.10
2023-01-30T23:32:08.736Z,82.00
2023-01-30T23:34:35.672Z,82.50
2023-01-30T23:37:02.438Z,83.30
2023-01-30T23:39:29.137Z,83.90
2023-01-30T23:41:55.776Z,84.00
2023-01-30T23:44:22.531Z,84.00
2023-01-30T23:46:49.131Z,84.10
2023-01-30T23:49:15.917Z,84.30
2023-01-30T23:51:44.381Z,84.40
2023-01-30T23:54:12.634Z,84.70
2023-01-30T23:56:44.036Z,84.90
2023-01-30T23:59:11.608Z,85.10
